createdAt,value
2023-02-07T00:00:48.932Z,18.52
2023-02-07T00:03:16.677Z,13.05
2023-02-07T00:05:43.415Z,12.27
2023-02-07T00:08:10.190Z,12.82
2023-02-07T00:10:36.949Z,11.30
2023-02-07T00:13:06.166Z,14.35
2023-02-07T00:15:33.094Z,18.02
2023-02-07T00:17:59.823Z,17.52
2023-02-07T00:20:26.734Z,9.70
2023-02-07T00:22:55.441Z,17.15
2023-02-07T00:25:22.620Z,23.13
2023-02-07T00:27:49.538Z,19.52
2023-02-07T00:30:16.765Z,11.65
2023-02-07T00:32:43.538Z,14.23
2023-02-07T00:35:10.270Z,11.27
2023-02-07T00:37:37.029Z,12.30
2023-02-07T00:40:04.357Z,13.50
2023-02-07T00:42:31.027Z,17.77
2023-02-07T00:44:57.843Z,18.20
2023-02-07T00:47:24.493Z,15.80
2023-02-07T00:49:51.313Z,14.45
2023-02-07T00:52:18.137Z,15.40
2023-02-07T00:54:44.876Z,15.48
2023-02-07T00:57:11.704Z,15.63
2023-02-07T00:59:38.466Z,13.00
2023-02-07T01:02:05.682Z,15.32
2023-02-07T01:04:32.385Z,12.45
2023-02-07T01:06:59.130Z,11.88
2023-02-07T01:09:25.769Z,14.05
2023-02-07T01:11:52.568Z,13.82
2023-02-07T01:14:19.235Z,13.88
2023-02-07T01:16:46.152Z,14.38
2023-02-07T01:19:14.786Z,13.35
2023-02-07T01:21:42.109Z,14.60
2023-02-07T01:24:09.717Z,10.77
2023-02-07T01:26:37.762Z,10.95
2023-02-07T01:29:05.607Z,13.75
2023-02-07T01:31:32.415Z,11.57
2023-02-07T01:34:00.747Z,11.98
2023-02-07T01:36:29.470Z,10.35
2023-02-07T01:38:57.032Z,13.75
2023-02-07T01:41:25.544Z,9.80
2023-02-07T01:44:24.542Z,10.70
2023-02-07T01:46:53.094Z,10.80
2023-02-07T01:49:26.380Z,15.77
2023-02-07T01:52:10.436Z,16.85
2023-02-07T01:54:38.343Z,11.40
2023-02-07T01:57:08.621Z,11.35
2023-02-07T01:59:38.899Z,11.00
2023-02-07T02:02:05.979Z,11.45
2023-02-07T02:04:32.620Z,12.48
2023-02-07T02:06:59.283Z,14.30
2023-02-07T02:09:27.617Z,13.15
2023-02-07T02:12:22.864Z,15.88
2023-02-07T02:14:58.814Z,14.38
2023-02-07T02:17:37.685Z,10.87
2023-02-07T02:20:07.024Z,11.20
2023-02-07T02:22:36.257Z,13.18
2023-02-07T02:25:08.748Z,13.07
2023-02-07T02:27:45.968Z,16.83
2023-02-07T02:30:54.238Z,13.73
2023-02-07T02:33:45.586Z,10.45
2023-02-07T02:36:36.481Z,14.88
2023-02-07T02:39:19.047Z,15.55
2023-02-07T02:41:56.747Z,8.43
2023-02-07T02:44:32.430Z,10.50
2023-02-07T02:47:01.417Z,11.73
2023-02-07T02:49:30.652Z,12.93
2023-02-07T02:51:57.722Z,12.05
2023-02-07T02:54:30.313Z,12.27
2023-02-07T02:57:07.920Z,14.88
2023-02-07T02:59:52.814Z,11.15
2023-02-07T03:02:39.013Z,10.95
2023-02-07T03:05:38.291Z,12.15
2023-02-07T03:08:23.873Z,15.00
2023-02-07T03:11:00.835Z,19.13
2023-02-07T03:16:19.998Z,9.80
2023-02-07T03:19:03.911Z,9.23
2023-02-07T03:21:58.466Z,13.25
2023-02-07T03:24:34.503Z,8.23
2023-02-07T03:27:06.304Z,10.87
2023-02-07T03:29:36.784Z,11.65
2023-02-07T03:32:06.979Z,11.98
2023-02-07T03:34:44.099Z,10.75
2023-02-07T03:37:17.295Z,13.77
2023-02-07T03:39:44.342Z,9.90
2023-02-07T03:42:36.836Z,13.30
2023-02-07T03:45:05.672Z,10.70
2023-02-07T03:47:32.565Z,10.32
2023-02-07T03:49:59.380Z,12.07
2023-02-07T03:52:25.927Z,8.65
2023-02-07T03:54:52.574Z,7.85
2023-02-07T03:57:19.524Z,9.52
2023-02-07T03:59:46.245Z,11.02
2023-02-07T04:02:13.249Z,8.95
2023-02-07T04:04:40.074Z,6.05
2023-02-07T04:07:07.008Z,14.95
2023-02-07T04:09:33.697Z,8.73
2023-02-07T04:12:00.605Z,13.25
2023-02-07T04:14:27.373Z,7.97
2023-02-07T04:16:54.245Z,9.90
2023-02-07T04:19:21.285Z,11.88
2023-02-07T04:21:49.098Z,12.77
2023-02-07T04:24:15.762Z,9.20
2023-02-07T04:26:42.516Z,9.65
2023-02-07T04:29:09.509Z,8.88
2023-02-07T04:31:37.760Z,9.00
2023-02-07T04:34:06.105Z,9.88
2023-02-07T04:36:32.813Z,10.68
2023-02-07T04:38:59.661Z,13.23
2023-02-07T04:41:26.372Z,17.02
2023-02-07T04:43:53.262Z,8.73
2023-02-07T04:46:20.073Z,11.75
2023-02-07T04:48:48.512Z,16.08
2023-02-07T04:51:15.591Z,13.27
2023-02-07T04:53:42.372Z,10.82
2023-02-07T04:56:09.463Z,10.30
2023-02-07T04:58:37.250Z,8.68
2023-02-07T05:01:03.963Z,10.40
2023-02-07T05:03:30.643Z,14.77
2023-02-07T05:05:57.248Z,12.05
2023-02-07T05:08:26.106Z,9.63
2023-02-07T05:10:56.594Z,7.85
2023-02-07T05:13:23.998Z,9.27
2023-02-07T05:15:51.479Z,10.18
2023-02-07T05:18:18.371Z,8.55
2023-02-07T05:20:45.277Z,11.05
2023-02-07T05:23:12.444Z,10.65
2023-02-07T05:25:41.007Z,7.75
2023-02-07T05:28:10.928Z,8.93
2023-02-07T05:30:37.875Z,9.63
2023-02-07T05:33:04.735Z,10.00
2023-02-07T05:35:33.548Z,14.02
2023-02-07T05:38:00.535Z,9.82
2023-02-07T05:40:27.876Z,10.88
2023-02-07T05:42:55.059Z,10.23
2023-02-07T05:45:22.106Z,7.15
2023-02-07T05:47:48.939Z,6.50
2023-02-07T05:50:16.220Z,9.10
2023-02-07T05:52:43.351Z,12.95
2023-02-07T05:55:13.060Z,10.50
2023-02-07T05:57:44.414Z,9.73
2023-02-07T06:00:17.574Z,10.50
2023-02-07T06:02:44.350Z,7.18
2023-02-07T06:05:13.041Z,8.32
2023-02-07T06:07:40.911Z,15.65
2023-02-07T06:10:08.434Z,8.02
2023-02-07T06:12:35.210Z,12.00
2023-02-07T06:15:01.895Z,9.95
2023-02-07T06:17:28.649Z,10.13
2023-02-07T06:19:55.255Z,12.80
2023-02-07T06:22:21.927Z,9.13
2023-02-07T06:24:48.707Z,10.48
2023-02-07T06:27:15.333Z,8.82
2023-02-07T06:29:41.940Z,7.03
2023-02-07T06:32:09.728Z,8.25
2023-02-07T06:34:36.326Z,8.93
2023-02-07T06:37:03.167Z,6.80
2023-02-07T06:39:29.925Z,9.43
2023-02-07T06:41:56.605Z,14.25
2023-02-07T06:44:23.472Z,16.05
2023-02-07T06:46:50.142Z,13.18
2023-02-07T06:49:16.900Z,10.05
2023-02-07T06:51:44.710Z,10.45
2023-02-07T06:54:11.370Z,10.30
2023-02-07T06:56:38.193Z,10.32
2023-02-07T06:59:05.136Z,8.23
2023-02-07T07:01:32.087Z,10.77
2023-02-07T07:03:58.891Z,13.00
2023-02-07T07:06:44.882Z,10.25
2023-02-07T07:09:12.609Z,12.88
2023-02-07T07:11:43.061Z,13.85
2023-02-07T07:14:12.197Z,11.35
2023-02-07T07:16:40.982Z,11.80
2023-02-07T07:19:07.894Z,11.32
2023-02-07T07:21:37.388Z,15.23
2023-02-07T07:24:04.332Z,17.95
2023-02-07T07:26:43.051Z,16.00
2023-02-07T07:29:14.964Z,18.33
2023-02-07T07:31:41.633Z,16.15
2023-02-07T07:34:08.249Z,16.65
2023-02-07T07:36:35.900Z,20.40
2023-02-07T07:39:03.065Z,14.32
2023-02-07T07:41:29.777Z,15.05
2023-02-07T07:43:56.449Z,13.18
2023-02-07T07:46:23.292Z,14.18
2023-02-07T07:48:50.194Z,12.60
2023-02-07T07:51:16.870Z,18.60
2023-02-07T07:53:43.589Z,17.98
2023-02-07T07:56:10.252Z,15.88
2023-02-07T07:58:37.134Z,16.35
2023-02-07T08:01:04.106Z,11.70
2023-02-07T08:03:31.086Z,15.65
2023-02-07T08:05:57.914Z,16.42
2023-02-07T08:08:24.784Z,8.88
2023-02-07T08:10:51.626Z,11.85
2023-02-07T08:13:19.984Z,11.55
2023-02-07T08:15:46.718Z,8.38
2023-02-07T08:18:13.669Z,9.95
2023-02-07T08:20:40.812Z,10.98
2023-02-07T08:23:07.695Z,9.05
2023-02-07T08:25:34.506Z,9.73
2023-02-07T08:28:04.118Z,8.10
2023-02-07T08:30:31.194Z,12.38
2023-02-07T08:32:57.987Z,14.52
2023-02-07T08:35:24.642Z,12.23
2023-02-07T08:37:51.291Z,9.32
2023-02-07T08:40:19.226Z,8.13
2023-02-07T08:42:46.090Z,8.13
2023-02-07T08:45:13.328Z,8.27
2023-02-07T08:47:40.073Z,8.05
2023-02-07T08:50:07.871Z,8.35
2023-02-07T08:52:34.798Z,8.52
2023-02-07T08:55:02.836Z,8.20
2023-02-07T08:57:29.573Z,7.63
2023-02-07T08:59:56.437Z,8.40
2023-02-07T09:02:23.349Z,7.57
2023-02-07T09:04:50.022Z,10.35
2023-02-07T09:07:17.563Z,8.55
2023-02-07T09:09:44.405Z,9.15
2023-02-07T09:12:11.897Z,8.90
2023-02-07T09:14:39.719Z,8.63
2023-02-07T09:17:07.629Z,7.55
2023-02-07T09:19:35.568Z,7.05
2023-02-07T09:22:03.368Z,6.88
2023-02-07T09:24:30.011Z,7.70
2023-02-07T09:26:56.861Z,9.80
2023-02-07T09:29:24.087Z,7.18
2023-02-07T09:31:50.966Z,8.73
2023-02-07T09:34:17.754Z,9.00
2023-02-07T09:36:44.979Z,9.60
2023-02-07T09:39:11.798Z,7.38
2023-02-07T09:42:07.859Z,7.75
2023-02-07T09:44:57.594Z,6.82
2023-02-07T09:47:26.093Z,6.65
2023-02-07T09:49:58.641Z,5.25
2023-02-07T09:52:39.990Z,6.82
2023-02-07T09:55:25.196Z,5.65
2023-02-07T09:57:58.500Z,5.35
2023-02-07T10:00:29.531Z,7.70
2023-02-07T10:03:16.318Z,8.32
2023-02-07T10:06:17.492Z,6.95
2023-02-07T10:08:49.870Z,4.68
2023-02-07T10:11:36.566Z,5.35
2023-02-07T10:14:33.410Z,4.65
2023-02-07T10:17:02.838Z,4.63
2023-02-07T10:20:12.867Z,4.75
2023-02-07T10:23:18.308Z,4.18
2023-02-07T10:26:13.402Z,4.47
2023-02-07T10:28:57.467Z,4.50
2023-02-07T10:31:26.209Z,4.70
2023-02-07T10:33:59.038Z,4.25
2023-02-07T10:36:26.552Z,5.30
2023-02-07T10:39:09.354Z,6.60
2023-02-07T10:41:39.766Z,3.90
2023-02-07T10:44:10.121Z,5.30
2023-02-07T10:46:38.742Z,4.55
2023-02-07T10:49:10.141Z,3.88
2023-02-07T10:51:44.234Z,5.03
2023-02-07T10:54:13.566Z,4.15
2023-02-07T10:56:46.418Z,5.47
2023-02-07T10:59:31.500Z,3.83
2023-02-07T11:01:58.488Z,4.88
2023-02-07T11:04:37.153Z,6.15
2023-02-07T11:07:06.180Z,4.20
2023-02-07T11:09:37.282Z,3.88
2023-02-07T11:12:22.973Z,3.05
2023-02-07T11:15:17.263Z,3.67
2023-02-07T11:17:52.210Z,6.00
2023-02-07T11:20:27.843Z,3.70
2023-02-07T11:22:57.046Z,3.83
2023-02-07T11:25:47.759Z,5.82
2023-02-07T11:28:32.444Z,3.40
2023-02-07T11:31:03.870Z,3.60
2023-02-07T11:33:34.959Z,3.75
2023-02-07T11:36:28.529Z,9.73
2023-02-07T11:38:58.595Z,3.40
2023-02-07T11:41:28.282Z,3.17
2023-02-07T11:44:01.925Z,3.60
2023-02-07T11:46:41.648Z,3.47
2023-02-07T11:49:34.647Z,4.38
2023-02-07T11:52:02.855Z,3.40
2023-02-07T11:54:31.487Z,3.13
2023-02-07T11:57:05.247Z,4.15
2023-02-07T11:59:36.211Z,3.90
2023-02-07T12:02:25.579Z,4.85
2023-02-07T12:04:54.917Z,3.40
2023-02-07T12:07:44.889Z,3.45
2023-02-07T12:10:18.938Z,3.75
2023-02-07T12:12:51.712Z,3.25
2023-02-07T12:15:24.951Z,3.88
2023-02-07T12:17:54.157Z,4.03
2023-02-07T12:20:26.100Z,4.25
2023-02-07T12:23:27.917Z,3.85
2023-02-07T12:25:59.437Z,3.58
2023-02-07T12:28:31.198Z,4.85
2023-02-07T12:31:02.212Z,3.10
2023-02-07T12:33:44.085Z,4.00
2023-02-07T12:36:31.873Z,3.55
2023-02-07T12:39:11.812Z,3.83
2023-02-07T12:41:42.731Z,3.30
2023-02-07T12:44:31.026Z,4.35
2023-02-07T12:47:08.704Z,3.75
2023-02-07T12:49:53.394Z,5.05
2023-02-07T12:52:25.192Z,4.35
2023-02-07T12:54:57.809Z,3.65
2023-02-07T12:57:37.895Z,15.50
2023-02-07T13:00:13.820Z,4.40
2023-02-07T13:03:18.179Z,3.25
2023-02-07T13:05:47.671Z,5.18
2023-02-07T13:08:27.515Z,3.72
2023-02-07T13:11:27.638Z,3.33
2023-02-07T13:14:09.641Z,2.88
2023-02-07T13:17:13.824Z,3.42
2023-02-07T13:19:51.140Z,4.30
2023-02-07T13:22:32.697Z,4.13
2023-02-07T13:25:01.840Z,4.25
2023-02-07T13:27:29.968Z,4.38
2023-02-07T13:29:57.021Z,3.50
2023-02-07T13:32:26.810Z,5.65
2023-02-07T13:35:15.468Z,4.13
2023-02-07T13:37:51.736Z,3.42
2023-02-07T13:40:40.330Z,5.60
2023-02-07T13:43:39.802Z,3.72
2023-02-07T13:46:27.068Z,5.03
2023-02-07T13:51:37.848Z,2.75
2023-02-07T13:54:42.062Z,3.10
2023-02-07T13:57:56.382Z,3.15
2023-02-07T14:00:26.247Z,3.47
2023-02-07T14:02:56.767Z,2.97
2023-02-07T14:05:28.638Z,3.30
2023-02-07T14:08:16.864Z,3.95
2023-02-07T14:10:48.344Z,3.67
2023-02-07T14:13:25.342Z,3.40
2023-02-07T14:16:01.288Z,3.83
2023-02-07T14:18:33.169Z,2.73
2023-02-07T14:21:02.377Z,3.90
2023-02-07T14:23:57.616Z,2.90
2023-02-07T14:26:39.653Z,3.08
2023-02-07T14:29:22.821Z,3.03
2023-02-07T14:31:49.587Z,2.83
2023-02-07T14:34:24.602Z,2.92
2023-02-07T14:36:54.998Z,3.10
2023-02-07T14:39:33.835Z,2.85
2023-02-07T14:42:20.972Z,2.63
2023-02-07T14:44:51.085Z,3.72
2023-02-07T14:47:30.527Z,3.25
2023-02-07T14:50:00.197Z,3.25
2023-02-07T14:52:31.715Z,3.38
2023-02-07T14:55:04.658Z,2.88
2023-02-07T14:57:47.669Z,2.95
2023-02-07T15:00:14.291Z,3.40
2023-02-07T15:02:52.388Z,3.15
2023-02-07T15:05:26.574Z,3.10
2023-02-07T15:08:23.631Z,3.33
2023-02-07T15:11:40.069Z,3.27
2023-02-07T15:14:07.270Z,4.50
2023-02-07T15:16:40.269Z,3.35
2023-02-07T15:19:39.548Z,3.25
2023-02-07T15:22:20.401Z,3.20
2023-02-07T15:24:55.394Z,3.47
2023-02-07T15:27:27.115Z,3.17
2023-02-07T15:30:08.611Z,4.28
2023-02-07T15:32:42.958Z,3.72
2023-02-07T15:35:20.709Z,3.35
2023-02-07T15:37:49.005Z,3.80
2023-02-07T15:40:34.642Z,3.13
2023-02-07T15:43:01.381Z,3.70
2023-02-07T15:45:33.679Z,3.35
2023-02-07T15:48:03.425Z,3.47
2023-02-07T15:50:31.107Z,3.15
2023-02-07T15:53:00.865Z,3.00
2023-02-07T15:55:42.896Z,3.58
2023-02-07T15:58:23.455Z,3.38
2023-02-07T16:00:52.379Z,3.38
2023-02-07T16:03:23.988Z,4.55
2023-02-07T16:06:13.892Z,3.22
2023-02-07T16:08:42.374Z,3.40
2023-02-07T16:11:28.259Z,3.72
2023-02-07T16:14:25.776Z,3.70
2023-02-07T16:16:58.365Z,7.03
2023-02-07T16:19:30.589Z,3.50
2023-02-07T16:22:08.457Z,4.28
2023-02-07T16:24:38.427Z,3.90
2023-02-07T16:27:06.518Z,3.42
2023-02-07T16:29:36.206Z,4.60
2023-02-07T16:32:03.267Z,3.28
2023-02-07T16:34:32.274Z,3.65
2023-02-07T16:36:58.938Z,3.90
2023-02-07T16:39:25.627Z,3.38
2023-02-07T16:41:56.268Z,3.67
2023-02-07T16:44:26.751Z,5.10
2023-02-07T16:46:53.494Z,4.15
2023-02-07T16:49:23.642Z,3.42
2023-02-07T16:51:50.623Z,3.53
2023-02-07T16:54:17.384Z,4.13
2023-02-07T16:56:46.099Z,6.40
2023-02-07T16:59:21.496Z,3.90
2023-02-07T17:01:49.747Z,3.92
2023-02-07T17:04:16.920Z,4.30
2023-02-07T17:07:02.442Z,3.85
2023-02-07T17:09:29.342Z,4.03
2023-02-07T17:11:56.648Z,3.75
2023-02-07T17:14:42.231Z,4.97
2023-02-07T17:17:12.131Z,3.45
2023-02-07T17:19:38.993Z,7.95
2023-02-07T17:22:05.557Z,4.70
2023-02-07T17:24:32.783Z,3.75
2023-02-07T17:26:59.920Z,3.50
2023-02-07T17:29:26.681Z,3.80
2023-02-07T17:31:53.621Z,4.75
2023-02-07T17:34:20.447Z,4.63
2023-02-07T17:36:49.984Z,4.43
2023-02-07T17:39:18.320Z,4.97
2023-02-07T17:41:45.381Z,4.75
2023-02-07T17:44:12.342Z,4.70
2023-02-07T17:46:39.047Z,5.95
2023-02-07T17:49:13.798Z,5.57
2023-02-07T17:51:40.628Z,5.85
2023-02-07T17:54:07.498Z,4.72
2023-02-07T17:56:34.536Z,5.57
2023-02-07T17:59:03.897Z,5.10
2023-02-07T18:01:32.194Z,5.32
2023-02-07T18:04:00.068Z,7.57
2023-02-07T18:06:29.848Z,4.40
2023-02-07T18:08:58.752Z,6.28
2023-02-07T18:11:27.734Z,4.45
2023-02-07T18:13:57.113Z,6.15
2023-02-07T18:16:25.853Z,4.43
2023-02-07T18:18:55.979Z,7.60
2023-02-07T18:21:22.622Z,6.35
2023-02-07T18:23:49.425Z,4.60
2023-02-07T18:26:16.885Z,5.43
2023-02-07T18:28:44.156Z,4.80
2023-02-07T18:31:20.514Z,5.18
2023-02-07T18:33:48.586Z,5.78
2023-02-07T18:36:16.377Z,4.97
2023-02-07T18:38:43.098Z,5.57
2023-02-07T18:41:12.097Z,4.82
2023-02-07T18:43:40.877Z,4.38
2023-02-07T18:46:13.426Z,4.95
2023-02-07T18:48:40.735Z,4.75
2023-02-07T18:51:10.601Z,6.00
2023-02-07T18:53:38.284Z,5.60
2023-02-07T18:56:06.903Z,7.97
2023-02-07T18:58:34.369Z,7.53
2023-02-07T19:01:15.155Z,13.77
2023-02-07T19:03:41.900Z,6.38
2023-02-07T19:06:08.665Z,7.38
2023-02-07T19:08:36.204Z,5.93
2023-02-07T19:11:05.461Z,7.03
2023-02-07T19:13:33.544Z,5.47
2023-02-07T19:16:18.079Z,8.35
2023-02-07T19:18:45.529Z,9.88
2023-02-07T19:21:19.190Z,5.07
2023-02-07T19:23:46.145Z,5.28
2023-02-07T19:26:13.344Z,5.55
2023-02-07T19:28:40.452Z,4.22
2023-02-07T19:31:10.109Z,6.47
2023-02-07T19:33:37.388Z,4.53
2023-02-07T19:36:08.767Z,4.68
2023-02-07T19:38:35.803Z,5.72
2023-02-07T19:41:03.312Z,3.80
2023-02-07T19:43:31.004Z,5.68
2023-02-07T19:45:57.833Z,6.57
2023-02-07T19:48:24.810Z,6.00
2023-02-07T19:51:03.308Z,7.18
2023-02-07T19:53:30.105Z,6.55
2023-02-07T19:56:11.388Z,10.45
2023-02-07T19:58:41.538Z,7.05
2023-02-07T20:01:08.937Z,5.40
2023-02-07T20:03:35.973Z,5.80
2023-02-07T20:06:09.824Z,4.60
2023-02-07T20:08:38.950Z,4.65
2023-02-07T20:11:08.256Z,4.90
2023-02-07T20:13:36.872Z,5.85
2023-02-07T20:16:09.984Z,5.30
2023-02-07T20:18:36.780Z,7.28
2023-02-07T20:21:11.463Z,7.05
2023-02-07T20:23:44.293Z,12.70
2023-02-07T20:26:17.448Z,8.07
2023-02-07T20:28:46.364Z,8.55
2023-02-07T20:31:15.077Z,7.53
2023-02-07T20:33:43.187Z,10.25
2023-02-07T20:36:11.943Z,13.00
2023-02-07T20:38:38.948Z,10.75
2023-02-07T20:41:08.582Z,10.43
2023-02-07T20:43:35.297Z,11.52
2023-02-07T20:46:13.671Z,10.93
2023-02-07T20:48:41.192Z,13.05
2023-02-07T20:51:12.217Z,11.73
2023-02-07T20:53:43.567Z,14.15
2023-02-07T20:56:17.273Z,11.85
2023-02-07T20:58:48.429Z,11.77
2023-02-07T21:01:21.390Z,12.85
2023-02-07T21:03:53.163Z,12.32
2023-02-07T21:06:22.956Z,13.02
2023-02-07T21:08:53.390Z,11.48
2023-02-07T21:11:21.482Z,12.68
2023-02-07T21:13:53.704Z,11.60
2023-02-07T21:16:22.482Z,19.63
2023-02-07T21:18:49.283Z,16.88
2023-02-07T21:21:17.358Z,18.10
2023-02-07T21:23:44.838Z,18.02
2023-02-07T21:26:14.223Z,14.70
2023-02-07T21:28:41.648Z,16.27
2023-02-07T21:31:11.436Z,13.68
2023-02-07T21:33:38.128Z,13.35
2023-02-07T21:36:10.174Z,9.77
2023-02-07T21:38:38.090Z,9.80
2023-02-07T21:41:09.635Z,8.02
2023-02-07T21:43:37.389Z,9.82
2023-02-07T21:46:18.167Z,5.88
2023-02-07T21:48:46.795Z,6.28
2023-02-07T21:51:18.805Z,6.55
2023-02-07T21:53:46.376Z,7.03
2023-02-07T21:56:16.061Z,6.95
2023-02-07T21:58:43.842Z,6.30
2023-02-07T22:01:13.982Z,7.07
2023-02-07T22:03:44.027Z,8.15
2023-02-07T22:06:11.429Z,7.28
2023-02-07T22:08:38.826Z,6.88
2023-02-07T22:11:09.521Z,7.53
2023-02-07T22:13:38.470Z,6.70
2023-02-07T22:16:07.332Z,7.00
2023-02-07T22:18:34.240Z,6.28
2023-02-07T22:21:24.285Z,6.60
2023-02-07T22:23:51.903Z,8.93
2023-02-07T22:26:18.944Z,6.82
2023-02-07T22:28:47.015Z,10.15
2023-02-07T22:31:28.976Z,8.25
2023-02-07T22:34:00.119Z,9.77
2023-02-07T22:36:29.224Z,6.47
2023-02-07T22:38:59.600Z,6.88
2023-02-07T22:41:27.289Z,8.52
2023-02-07T22:43:54.634Z,8.05
2023-02-07T22:46:24.522Z,8.90
2023-02-07T22:48:51.978Z,8.32
2023-02-07T22:51:24.897Z,7.35
2023-02-07T22:53:55.596Z,8.02
2023-02-07T22:56:23.207Z,7.40
2023-02-07T22:58:49.964Z,9.90
2023-02-07T23:01:30.893Z,12.27
2023-02-07T23:03:58.755Z,16.15
2023-02-07T23:06:26.873Z,15.73
2023-02-07T23:08:54.377Z,20.15
2023-02-07T23:11:23.328Z,13.82
2023-02-07T23:13:51.060Z,14.60
2023-02-07T23:16:23.820Z,13.55
2023-02-07T23:18:52.414Z,15.43
2023-02-07T23:21:21.580Z,10.63
2023-02-07T23:23:48.768Z,11.05
2023-02-07T23:26:18.264Z,12.93
2023-02-07T23:28:45.489Z,14.15
2023-02-07T23:31:14.916Z,14.13
2023-02-07T23:33:42.185Z,13.88
2023-02-07T23:36:09.821Z,12.70
2023-02-07T23:38:36.645Z,14.40
2023-02-07T23:41:04.200Z,16.20
2023-02-07T23:43:31.066Z,12.82
2023-02-07T23:45:59.881Z,11.77
2023-02-07T23:48:26.579Z,22.45
2023-02-07T23:50:55.272Z,15.02
2023-02-07T23:53:22.354Z,11.05
2023-02-07T23:55:50.179Z,9.48
2023-02-07T23:58:17.229Z,12.13
